sensor_id;sensor_type;location;lat;lon;timestamp;temperature;humidity
54461;DHT22;40371;49.414;11.010;2022-11-20T00:01:08;2.10;99.90
54461;DHT22;40371;49.414;11.010;2022-11-20T00:03:34;2.10;99.90
54461;DHT22;40371;49.414;11.010;2022-11-20T00:06:01;2.20;99.90
54461;DHT22;40371;49.414;11.010;2022-11-20T00:08:27;2.20;99.90
54461;DHT22;40371;49.414;11.010;2022-11-20T00:10:52;2.30;99.90
54461;DHT22;40371;49.414;11.010;2022-11-20T00:13:18;2.30;99.90
54461;DHT22;40371;49.414;11.010;2022-11-20T00:15:43;2.30;99.90
54461;DHT22;40371;49.414;11.010;2022-11-20T00:18:09;2.20;99.90
54461;DHT22;40371;49.414;11.010;2022-11-20T00:20:34;2.30;99.90
54461;DHT22;40371;49.414;11.010;2022-11-20T00:23:00;2.20;99.90
54461;DHT22;40371;49.414;11.010;2022-11-20T00:25:25;2.30;99.90
54461;DHT22;40371;49.414;11.010;2022-11-20T00:27:51;2.30;99.90
54461;DHT22;40371;49.414;11.010;2022-11-20T00:30:17;2.30;99.90
54461;DHT22;40371;49.414;11.010;2022-11-20T00:32:42;2.30;99.90
54461;DHT22;40371;49.414;11.010;2022-11-20T00:35:08;2.40;99.90
54461;DHT22;40371;49.414;11.010;2022-11-20T00:37:34;2.30;99.90
54461;DHT22;40371;49.414;11.010;2022-11-20T00:39:59;2.30;99.90
54461;DHT22;40371;49.414;11.010;2022-11-20T00:42:25;2.30;99.90
54461;DHT22;40371;49.414;11.010;2022-11-20T00:44:50;2.20;99.90
54461;DHT22;40371;49.414;11.010;2022-11-20T00:47:16;2.20;99.90
54461;DHT22;40371;49.414;11.010;2022-11-20T00:49:42;2.20;99.90
54461;DHT22;40371;49.414;11.010;2022-11-20T00:52:07;2.30;99.90
54461;DHT22;40371;49.414;11.010;2022-11-20T00:54:34;2.30;99.90
54461;DHT22;40371;49.414;11.010;2022-11-20T00:56:59;2.30;99.90
54461;DHT22;40371;49.414;11.010;2022-11-20T00:59:25;2.20;99.90
54461;DHT22;40371;49.414;11.010;2022-11-20T01:01:50;2.30;99.90
54461;DHT22;40371;49.414;11.010;2022-11-20T01:04:16;2.40;99.90
54461;DHT22;40371;49.414;11.010;2022-11-20T01:06:41;2.40;99.90
54461;DHT22;40371;49.414;11.010;2022-11-20T01:09:12;2.50;99.90
54461;DHT22;40371;49.414;11.010;2022-11-20T01:11:40;2.60;99.90
54461;DHT22;40371;49.414;11.010;2022-11-20T01:14:12;2.40;99.90
54461;DHT22;40371;49.414;11.010;2022-11-20T01:16:41;2.30;99.90
54461;DHT22;40371;49.414;11.010;2022-11-20T01:19:10;2.20;99.90
54461;DHT22;40371;49.414;11.010;2022-11-20T01:21:38;2.10;99.90
54461;DHT22;40371;49.414;11.010;2022-11-20T01:24:06;2.30;99.90
54461;DHT22;40371;49.414;11.010;2022-11-20T01:26:35;2.20;99.90
54461;DHT22;40371;49.414;11.010;2022-11-20T01:29:03;2.00;99.90
54461;DHT22;40371;49.414;11.010;2022-11-20T01:31:34;2.30;99.90
54461;DHT22;40371;49.414;11.010;2022-11-20T01:34:06;2.40;99.90
54461;DHT22;40371;49.414;11.010;2022-11-20T01:36:33;2.50;99.90
54461;DHT22;40371;49.414;11.010;2022-11-20T01:39:03;2.40;99.90
54461;DHT22;40371;49.414;11.010;2022-11-20T01:41:30;2.40;99.90
54461;DHT22;40371;49.414;11.010;2022-11-20T01:44:19;2.30;99.90
54461;DHT22;40371;49.414;11.010;2022-11-20T01:47:00;2.40;99.90
54461;DHT22;40371;49.414;11.010;2022-11-20T01:49:37;2.50;99.90
54461;DHT22;40371;49.414;11.010;2022-11-20T01:52:23;2.30;99.90
54461;DHT22;40371;49.414;11.010;2022-11-20T01:54:56;2.20;99.90
54461;DHT22;40371;49.414;11.010;2022-11-20T01:57:27;2.50;99.90
54461;DHT22;40371;49.414;11.010;2022-11-20T01:59:59;2.60;99.90
54461;DHT22;40371;49.414;11.010;2022-11-20T02:02:27;2.60;99.90
54461;DHT22;40371;49.414;11.010;2022-11-20T02:04:54;2.40;99.90
54461;DHT22;40371;49.414;11.010;2022-11-20T02:07:22;2.40;99.90
54461;DHT22;40371;49.414;11.010;2022-11-20T02:09:49;2.40;99.90
54461;DHT22;40371;49.414;11.010;2022-11-20T02:12:14;2.20;99.90
54461;DHT22;40371;49.414;11.010;2022-11-20T02:15:00;2.20;99.90
54461;DHT22;40371;49.414;11.010;2022-11-20T02:17:26;2.20;99.90
54461;DHT22;40371;49.414;11.010;2022-11-20T02:19:52;2.40;99.90
54461;DHT22;40371;49.414;11.010;2022-11-20T02:22:35;2.20;99.90
54461;DHT22;40371;49.414;11.010;2022-11-20T02:25:05;2.30;99.90
54461;DHT22;40371;49.414;11.010;2022-11-20T02:27:32;2.50;99.90
54461;DHT22;40371;49.414;11.010;2022-11-20T02:30:01;2.60;99.90
54461;DHT22;40371;49.414;11.010;2022-11-20T02:32:32;2.30;99.90
54461;DHT22;40371;49.414;11.010;2022-11-20T02:35:09;2.30;99.90
54461;DHT22;40371;49.414;11.010;2022-11-20T02:37:37;2.30;99.90
54461;DHT22;40371;49.414;11.010;2022-11-20T02:40:04;2.30;99.90
54461;DHT22;40371;49.414;11.010;2022-11-20T02:42:30;2.30;99.90
54461;DHT22;40371;49.414;11.010;2022-11-20T02:44:55;2.50;99.90
54461;DHT22;40371;49.414;11.010;2022-11-20T02:47:21;2.60;99.90
54461;DHT22;40371;49.414;11.010;2022-11-20T02:49:46;2.70;99.90
54461;DHT22;40371;49.414;11.010;2022-11-20T02:52:12;2.80;99.90
54461;DHT22;40371;49.414;11.010;2022-11-20T02:54:38;2.90;99.90
54461;DHT22;40371;49.414;11.010;2022-11-20T02:57:03;2.80;99.90
54461;DHT22;40371;49.414;11.010;2022-11-20T02:59:29;2.70;99.90
54461;DHT22;40371;49.414;11.010;2022-11-20T03:01:55;2.80;99.90
54461;DHT22;40371;49.414;11.010;2022-11-20T03:04:20;2.90;99.90
54461;DHT22;40371;49.414;11.010;2022-11-20T03:06:46;3.00;99.90
54461;DHT22;40371;49.414;11.010;2022-11-20T03:09:12;2.90;99.90
54461;DHT22;40371;49.414;11.010;2022-11-20T03:11:37;2.80;99.90
54461;DHT22;40371;49.414;11.010;2022-11-20T03:14:04;2.80;99.90
54461;DHT22;40371;49.414;11.010;2022-11-20T03:16:31;2.80;99.90
54461;DHT22;40371;49.414;11.010;2022-11-20T03:18:56;2.90;99.90
54461;DHT22;40371;49.414;11.010;2022-11-20T03:21:22;3.00;99.90
54461;DHT22;40371;49.414;11.010;2022-11-20T03:23:48;2.90;99.90
54461;DHT22;40371;49.414;11.010;2022-11-20T03:28:45;2.90;99.90
54461;DHT22;40371;49.414;11.010;2022-11-20T03:31:13;2.60;99.90
54461;DHT22;40371;49.414;11.010;2022-11-20T03:33:40;2.60;99.90
54461;DHT22;40371;49.414;11.010;2022-11-20T03:36:09;2.60;99.90
54461;DHT22;40371;49.414;11.010;2022-11-20T03:38:35;2.70;99.90
54461;DHT22;40371;49.414;11.010;2022-11-20T03:41:03;2.80;99.90
54461;DHT22;40371;49.414;11.010;2022-11-20T03:43:29;2.80;99.90
54461;DHT22;40371;49.414;11.010;2022-11-20T03:45:55;2.80;99.90
54461;DHT22;40371;49.414;11.010;2022-11-20T03:48:20;2.80;99.90
54461;DHT22;40371;49.414;11.010;2022-11-20T03:50:46;2.90;99.90
54461;DHT22;40371;49.414;11.010;2022-11-20T03:53:15;2.80;99.90
54461;DHT22;40371;49.414;11.010;2022-11-20T03:55:41;2.60;99.90
54461;DHT22;40371;49.414;11.010;2022-11-20T03:58:08;2.70;99.90
54461;DHT22;40371;49.414;11.010;2022-11-20T04:00:34;2.60;99.90
54461;DHT22;40371;49.414;11.010;2022-11-20T04:03:02;2.70;99.90
54461;DHT22;40371;49.414;11.010;2022-11-20T04:05:28;2.60;99.90
54461;DHT22;40371;49.414;11.010;2022-11-20T04:07:53;2.70;99.90
54461;DHT22;40371;49.414;11.010;2022-11-20T04:10:19;2.80;99.90
54461;DHT22;40371;49.414;11.010;2022-11-20T04:12:45;2.80;99.90
54461;DHT22;40371;49.414;11.010;2022-11-20T04:15:10;2.70;99.90
54461;DHT22;40371;49.414;11.010;2022-11-20T04:17:36;2.80;99.90
54461;DHT22;40371;49.414;11.010;2022-11-20T04:20:02;2.70;99.90
54461;DHT22;40371;49.414;11.010;2022-11-20T04:22:28;2.70;99.90
54461;DHT22;40371;49.414;11.010;2022-11-20T04:24:53;2.90;99.90
54461;DHT22;40371;49.414;11.010;2022-11-20T04:27:19;2.60;99.90
54461;DHT22;40371;49.414;11.010;2022-11-20T04:29:44;2.40;99.90
54461;DHT22;40371;49.414;11.010;2022-11-20T04:32:10;2.20;99.90
54461;DHT22;40371;49.414;11.010;2022-11-20T04:34:36;2.30;99.90
54461;DHT22;40371;49.414;11.010;2022-11-20T04:37:01;2.40;99.90
54461;DHT22;40371;49.414;11.010;2022-11-20T04:39:27;2.50;99.90
54461;DHT22;40371;49.414;11.010;2022-11-20T04:41:53;2.60;99.90
54461;DHT22;40371;49.414;11.010;2022-11-20T04:44:38;2.60;99.90
54461;DHT22;40371;49.414;11.010;2022-11-20T04:47:04;2.40;99.90
54461;DHT22;40371;49.414;11.010;2022-11-20T04:49:30;2.40;99.90
54461;DHT22;40371;49.414;11.010;2022-11-20T04:51:57;2.60;99.90
54461;DHT22;40371;49.414;11.010;2022-11-20T04:54:23;2.70;99.90
54461;DHT22;40371;49.414;11.010;2022-11-20T04:56:49;2.80;99.90
54461;DHT22;40371;49.414;11.010;2022-11-20T04:59:15;2.80;99.90
54461;DHT22;40371;49.414;11.010;2022-11-20T05:01:40;2.90;99.90
54461;DHT22;40371;49.414;11.010;2022-11-20T05:04:06;2.80;99.90
54461;DHT22;40371;49.414;11.010;2022-11-20T05:06:32;2.90;99.90
54461;DHT22;40371;49.414;11.010;2022-11-20T05:08:58;2.90;99.90
54461;DHT22;40371;49.414;11.010;2022-11-20T05:11:24;2.60;99.90
54461;DHT22;40371;49.414;11.010;2022-11-20T05:13:51;2.70;99.90
54461;DHT22;40371;49.414;11.010;2022-11-20T05:16:22;2.60;99.90
54461;DHT22;40371;49.414;11.010;2022-11-20T05:18:51;2.70;99.90
54461;DHT22;40371;49.414;11.010;2022-11-20T05:21:18;2.60;99.90
54461;DHT22;40371;49.414;11.010;2022-11-20T05:23:44;2.50;99.90
54461;DHT22;40371;49.414;11.010;2022-11-20T05:26:21;2.40;99.90
54461;DHT22;40371;49.414;11.010;2022-11-20T05:28:47;2.60;99.90
54461;DHT22;40371;49.414;11.010;2022-11-20T05:31:16;2.70;99.90
54461;DHT22;40371;49.414;11.010;2022-11-20T05:33:43;2.60;99.90
54461;DHT22;40371;49.414;11.010;2022-11-20T05:36:10;2.70;99.90
54461;DHT22;40371;49.414;11.010;2022-11-20T05:38:36;2.70;99.90
54461;DHT22;40371;49.414;11.010;2022-11-20T05:41:13;2.70;99.90
54461;DHT22;40371;49.414;11.010;2022-11-20T05:43:40;2.90;99.90
54461;DHT22;40371;49.414;11.010;2022-11-20T05:46:08;2.90;99.90
54461;DHT22;40371;49.414;11.010;2022-11-20T05:48:34;2.80;99.90
54461;DHT22;40371;49.414;11.010;2022-11-20T05:51:02;2.80;99.90
54461;DHT22;40371;49.414;11.010;2022-11-20T05:53:28;2.60;99.90
54461;DHT22;40371;49.414;11.010;2022-11-20T05:56:06;2.40;99.90
54461;DHT22;40371;49.414;11.010;2022-11-20T05:58:33;2.40;99.90
54461;DHT22;40371;49.414;11.010;2022-11-20T06:01:13;2.50;99.90
54461;DHT22;40371;49.414;11.010;2022-11-20T06:03:40;2.40;99.90
54461;DHT22;40371;49.414;11.010;2022-11-20T06:06:08;2.60;99.90
54461;DHT22;40371;49.414;11.010;2022-11-20T06:08:33;2.50;99.90
54461;DHT22;40371;49.414;11.010;2022-11-20T06:11:06;2.60;99.90
54461;DHT22;40371;49.414;11.010;2022-11-20T06:13:32;2.60;99.90
54461;DHT22;40371;49.414;11.010;2022-11-20T06:15:58;2.70;99.90
54461;DHT22;40371;49.414;11.010;2022-11-20T06:18:29;2.80;99.90
54461;DHT22;40371;49.414;11.010;2022-11-20T06:21:06;2.80;99.90
54461;DHT22;40371;49.414;11.010;2022-11-20T06:23:33;2.70;99.90
54461;DHT22;40371;49.414;11.010;2022-11-20T06:26:07;2.90;99.90
54461;DHT22;40371;49.414;11.010;2022-11-20T06:28:33;3.00;99.90
54461;DHT22;40371;49.414;11.010;2022-11-20T06:30:59;2.90;99.90
54461;DHT22;40371;49.414;11.010;2022-11-20T06:33:25;2.90;99.90
54461;DHT22;40371;49.414;11.010;2022-11-20T06:35:51;2.90;99.90
54461;DHT22;40371;49.414;11.010;2022-11-20T06:38:16;2.90;99.90
54461;DHT22;40371;49.414;11.010;2022-11-20T06:40:42;2.50;99.90
54461;DHT22;40371;49.414;11.010;2022-11-20T06:43:09;2.50;99.90
54461;DHT22;40371;49.414;11.010;2022-11-20T06:45:35;2.50;99.90
54461;DHT22;40371;49.414;11.010;2022-11-20T06:48:01;2.50;99.90
54461;DHT22;40371;49.414;11.010;2022-11-20T06:50:27;2.60;99.90
54461;DHT22;40371;49.414;11.010;2022-11-20T06:52:53;2.70;99.90
54461;DHT22;40371;49.414;11.010;2022-11-20T06:55:18;2.60;99.90
54461;DHT22;40371;49.414;11.010;2022-11-20T06:57:44;2.50;99.90
54461;DHT22;40371;49.414;11.010;2022-11-20T07:00:10;2.60;99.90
54461;DHT22;40371;49.414;11.010;2022-11-20T07:02:36;2.80;99.90
54461;DHT22;40371;49.414;11.010;2022-11-20T07:05:02;2.80;99.90
54461;DHT22;40371;49.414;11.010;2022-11-20T07:07:27;2.90;99.90
54461;DHT22;40371;49.414;11.010;2022-11-20T07:09:53;2.90;99.90
54461;DHT22;40371;49.414;11.010;2022-11-20T07:12:18;2.90;99.90
54461;DHT22;40371;49.414;11.010;2022-11-20T07:14:44;2.80;99.90
54461;DHT22;40371;49.414;11.010;2022-11-20T07:17:10;3.00;99.90
54461;DHT22;40371;49.414;11.010;2022-11-20T07:19:35;2.90;99.90
54461;DHT22;40371;49.414;11.010;2022-11-20T07:22:01;2.80;99.90
54461;DHT22;40371;49.414;11.010;2022-11-20T07:24:26;2.80;99.90
54461;DHT22;40371;49.414;11.010;2022-11-20T07:26:52;2.70;99.90
54461;DHT22;40371;49.414;11.010;2022-11-20T07:29:17;2.50;99.90
54461;DHT22;40371;49.414;11.010;2022-11-20T07:31:43;2.70;99.90
54461;DHT22;40371;49.414;11.010;2022-11-20T07:34:09;2.70;99.90
54461;DHT22;40371;49.414;11.010;2022-11-20T07:36:35;3.00;99.90
54461;DHT22;40371;49.414;11.010;2022-11-20T07:39:00;3.10;99.90
54461;DHT22;40371;49.414;11.010;2022-11-20T07:41:26;3.20;99.90
54461;DHT22;40371;49.414;11.010;2022-11-20T07:43:52;3.20;99.90
54461;DHT22;40371;49.414;11.010;2022-11-20T07:46:18;3.30;99.90
54461;DHT22;40371;49.414;11.010;2022-11-20T07:48:44;3.40;99.90
54461;DHT22;40371;49.414;11.010;2022-11-20T07:51:09;3.40;99.90
54461;DHT22;40371;49.414;11.010;2022-11-20T07:53:35;3.30;99.90
54461;DHT22;40371;49.414;11.010;2022-11-20T07:56:01;3.10;99.90
54461;DHT22;40371;49.414;11.010;2022-11-20T07:58:29;2.90;99.90
54461;DHT22;40371;49.414;11.010;2022-11-20T08:00:55;3.10;99.90
54461;DHT22;40371;49.414;11.010;2022-11-20T08:03:21;3.30;99.90
54461;DHT22;40371;49.414;11.010;2022-11-20T08:05:46;3.50;99.90
54461;DHT22;40371;49.414;11.010;2022-11-20T08:08:12;3.50;99.90
54461;DHT22;40371;49.414;11.010;2022-11-20T08:10:38;3.30;99.90
54461;DHT22;40371;49.414;11.010;2022-11-20T08:13:03;3.10;99.90
54461;DHT22;40371;49.414;11.010;2022-11-20T08:15:49;3.40;99.90
54461;DHT22;40371;49.414;11.010;2022-11-20T08:18:16;3.50;99.90
54461;DHT22;40371;49.414;11.010;2022-11-20T08:20:43;3.50;99.90
54461;DHT22;40371;49.414;11.010;2022-11-20T08:23:08;3.60;99.90
54461;DHT22;40371;49.414;11.010;2022-11-20T08:25:36;3.50;99.90
54461;DHT22;40371;49.414;11.010;2022-11-20T08:28:04;3.60;99.90
54461;DHT22;40371;49.414;11.010;2022-11-20T08:30:30;3.60;99.90
54461;DHT22;40371;49.414;11.010;2022-11-20T08:33:05;3.40;99.90
54461;DHT22;40371;49.414;11.010;2022-11-20T08:35:35;3.50;99.90
54461;DHT22;40371;49.414;11.010;2022-11-20T08:38:03;3.60;99.90
54461;DHT22;40371;49.414;11.010;2022-11-20T08:40:29;3.90;99.90
54461;DHT22;40371;49.414;11.010;2022-11-20T08:42:54;4.10;99.90
54461;DHT22;40371;49.414;11.010;2022-11-20T08:45:20;3.90;99.90
54461;DHT22;40371;49.414;11.010;2022-11-20T08:47:45;4.00;99.90
54461;DHT22;40371;49.414;11.010;2022-11-20T08:50:13;3.70;99.90
54461;DHT22;40371;49.414;11.010;2022-11-20T08:52:39;4.10;99.90
54461;DHT22;40371;49.414;11.010;2022-11-20T08:55:05;4.20;99.90
54461;DHT22;40371;49.414;11.010;2022-11-20T08:57:37;4.20;99.90
54461;DHT22;40371;49.414;11.010;2022-11-20T09:00:05;4.20;99.90
54461;DHT22;40371;49.414;11.010;2022-11-20T09:02:31;4.30;99.90
54461;DHT22;40371;49.414;11.010;2022-11-20T09:04:57;4.30;99.90
54461;DHT22;40371;49.414;11.010;2022-11-20T09:07:23;4.30;99.90
54461;DHT22;40371;49.414;11.010;2022-11-20T09:09:49;4.30;99.90
54461;DHT22;40371;49.414;11.010;2022-11-20T09:12:14;4.30;99.90
54461;DHT22;40371;49.414;11.010;2022-11-20T09:14:40;4.20;99.90
54461;DHT22;40371;49.414;11.010;2022-11-20T09:17:06;4.10;99.90
54461;DHT22;40371;49.414;11.010;2022-11-20T09:19:33;3.90;99.90
54461;DHT22;40371;49.414;11.010;2022-11-20T09:21:59;4.00;99.90
54461;DHT22;40371;49.414;11.010;2022-11-20T09:24:26;4.20;99.90
54461;DHT22;40371;49.414;11.010;2022-11-20T09:26:52;4.30;99.90
54461;DHT22;40371;49.414;11.010;2022-11-20T09:29:17;4.30;99.90
54461;DHT22;40371;49.414;11.010;2022-11-20T09:31:43;4.50;99.90
54461;DHT22;40371;49.414;11.010;2022-11-20T09:34:09;4.50;99.90
54461;DHT22;40371;49.414;11.010;2022-11-20T09:36:35;4.50;99.90
54461;DHT22;40371;49.414;11.010;2022-11-20T09:39:01;4.80;99.90
54461;DHT22;40371;49.414;11.010;2022-11-20T09:47:02;5.30;99.90
54461;DHT22;40371;49.414;11.010;2022-11-20T09:54:46;4.70;99.90
54461;DHT22;40371;49.414;11.010;2022-11-20T09:57:15;4.70;99.90
54461;DHT22;40371;49.414;11.010;2022-11-20T09:59:44;4.60;99.90
54461;DHT22;40371;49.414;11.010;2022-11-20T10:05:11;4.60;99.90
54461;DHT22;40371;49.414;11.010;2022-11-20T10:10:36;4.50;99.90
54461;DHT22;40371;49.414;11.010;2022-11-20T10:16:09;4.60;99.90
54461;DHT22;40371;49.414;11.010;2022-11-20T10:21:53;4.70;99.90
54461;DHT22;40371;49.414;11.010;2022-11-20T10:30:14;4.90;99.90
54461;DHT22;40371;49.414;11.010;2022-11-20T10:32:47;5.10;99.90
54461;DHT22;40371;49.414;11.010;2022-11-20T10:38:48;5.20;99.90
54461;DHT22;40371;49.414;11.010;2022-11-20T10:41:20;5.30;99.90
54461;DHT22;40371;49.414;11.010;2022-11-20T10:44:15;5.40;99.90
54461;DHT22;40371;49.414;11.010;2022-11-20T10:46:46;5.10;99.90
54461;DHT22;40371;49.414;11.010;2022-11-20T10:49:16;5.30;99.90
54461;DHT22;40371;49.414;11.010;2022-11-20T10:57:41;5.40;99.90
54461;DHT22;40371;49.414;11.010;2022-11-20T11:00:12;5.70;99.90
54461;DHT22;40371;49.414;11.010;2022-11-20T11:02:51;5.60;99.90
54461;DHT22;40371;49.414;11.010;2022-11-20T11:05:51;5.80;99.90
54461;DHT22;40371;49.414;11.010;2022-11-20T11:08:14;6.10;99.90
54461;DHT22;40371;49.414;11.010;2022-11-20T11:10:59;6.10;99.90
54461;DHT22;40371;49.414;11.010;2022-11-20T11:13:30;6.20;99.90
54461;DHT22;40371;49.414;11.010;2022-11-20T11:15:58;6.30;99.90
54461;DHT22;40371;49.414;11.010;2022-11-20T11:18:29;6.20;99.90
54461;DHT22;40371;49.414;11.010;2022-11-20T11:20:56;6.20;99.90
54461;DHT22;40371;49.414;11.010;2022-11-20T11:23:32;6.20;99.90
54461;DHT22;40371;49.414;11.010;2022-11-20T11:26:00;6.30;99.90
54461;DHT22;40371;49.414;11.010;2022-11-20T11:28:26;6.40;99.90
54461;DHT22;40371;49.414;11.010;2022-11-20T11:30:54;6.20;99.90
54461;DHT22;40371;49.414;11.010;2022-11-20T11:33:27;6.00;99.90
54461;DHT22;40371;49.414;11.010;2022-11-20T11:36:17;5.40;99.90
54461;DHT22;40371;49.414;11.010;2022-11-20T11:38:44;5.10;99.90
54461;DHT22;40371;49.414;11.010;2022-11-20T11:41:23;4.90;99.90
54461;DHT22;40371;49.414;11.010;2022-11-20T11:43:59;4.80;99.90
54461;DHT22;40371;49.414;11.010;2022-11-20T11:46:51;4.90;99.90
54461;DHT22;40371;49.414;11.010;2022-11-20T11:49:19;4.90;99.90
54461;DHT22;40371;49.414;11.010;2022-11-20T11:51:58;4.80;99.90
54461;DHT22;40371;49.414;11.010;2022-11-20T11:54:58;4.90;99.90
54461;DHT22;40371;49.414;11.010;2022-11-20T11:57:41;5.10;99.90
54461;DHT22;40371;49.414;11.010;2022-11-20T12:00:11;5.00;99.90
54461;DHT22;40371;49.414;11.010;2022-11-20T12:05:53;4.90;99.90
54461;DHT22;40371;49.414;11.010;2022-11-20T12:11:06;4.90;99.90
54461;DHT22;40371;49.414;11.010;2022-11-20T12:13:48;4.90;99.90
54461;DHT22;40371;49.414;11.010;2022-11-20T12:16:18;4.90;99.90
54461;DHT22;40371;49.414;11.010;2022-11-20T12:18:48;4.90;99.90
54461;DHT22;40371;49.414;11.010;2022-11-20T12:30:09;5.00;99.90
54461;DHT22;40371;49.414;11.010;2022-11-20T12:40:28;5.40;99.90
54461;DHT22;40371;49.414;11.010;2022-11-20T12:43:21;5.40;99.90
54461;DHT22;40371;49.414;11.010;2022-11-20T12:54:42;5.60;99.90
54461;DHT22;40371;49.414;11.010;2022-11-20T12:57:29;5.60;99.90
54461;DHT22;40371;49.414;11.010;2022-11-20T13:00:14;5.50;99.90
54461;DHT22;40371;49.414;11.010;2022-11-20T13:06:15;5.50;99.90
54461;DHT22;40371;49.414;11.010;2022-11-20T13:08:49;5.50;99.90
54461;DHT22;40371;49.414;11.010;2022-11-20T13:11:46;5.40;99.90
54461;DHT22;40371;49.414;11.010;2022-11-20T13:19:21;5.20;99.90
54461;DHT22;40371;49.414;11.010;2022-11-20T13:21:49;5.20;99.90
54461;DHT22;40371;49.414;11.010;2022-11-20T13:27:01;5.10;99.90
54461;DHT22;40371;49.414;11.010;2022-11-20T13:29:27;5.10;99.90
54461;DHT22;40371;49.414;11.010;2022-11-20T13:32:17;5.00;99.90
54461;DHT22;40371;49.414;11.010;2022-11-20T13:34:58;5.00;99.90
54461;DHT22;40371;49.414;11.010;2022-11-20T13:37:31;5.10;99.90
54461;DHT22;40371;49.414;11.010;2022-11-20T13:42:46;5.00;99.90
54461;DHT22;40371;49.414;11.010;2022-11-20T13:45:28;5.00;99.90
54461;DHT22;40371;49.414;11.010;2022-11-20T13:47:56;4.90;99.90
54461;DHT22;40371;49.414;11.010;2022-11-20T13:53:05;4.80;99.90
54461;DHT22;40371;49.414;11.010;2022-11-20T13:55:46;4.80;99.90
54461;DHT22;40371;49.414;11.010;2022-11-20T14:01:28;5.00;99.90
54461;DHT22;40371;49.414;11.010;2022-11-20T14:03:55;5.00;99.90
54461;DHT22;40371;49.414;11.010;2022-11-20T14:06:32;5.00;99.90
54461;DHT22;40371;49.414;11.010;2022-11-20T14:09:00;5.00;99.90
54461;DHT22;40371;49.414;11.010;2022-11-20T14:11:27;5.00;99.90
54461;DHT22;40371;49.414;11.010;2022-11-20T14:14:16;5.00;99.90
54461;DHT22;40371;49.414;11.010;2022-11-20T14:16:42;5.00;99.90
54461;DHT22;40371;49.414;11.010;2022-11-20T14:21:47;5.00;99.90
54461;DHT22;40371;49.414;11.010;2022-11-20T14:24:13;5.00;99.90
54461;DHT22;40371;49.414;11.010;2022-11-20T14:26:44;5.00;99.90
54461;DHT22;40371;49.414;11.010;2022-11-20T14:29:21;5.00;99.90
54461;DHT22;40371;49.414;11.010;2022-11-20T14:31:51;4.90;99.90
54461;DHT22;40371;49.414;11.010;2022-11-20T14:34:21;5.00;99.90
54461;DHT22;40371;49.414;11.010;2022-11-20T14:36:47;5.00;99.90
54461;DHT22;40371;49.414;11.010;2022-11-20T14:39:48;5.00;99.90
54461;DHT22;40371;49.414;11.010;2022-11-20T14:42:16;5.00;99.90
54461;DHT22;40371;49.414;11.010;2022-11-20T14:44:42;5.00;99.90
54461;DHT22;40371;49.414;11.010;2022-11-20T14:47:12;4.90;99.90
54461;DHT22;40371;49.414;11.010;2022-11-20T14:49:38;4.90;99.90
54461;DHT22;40371;49.414;11.010;2022-11-20T14:52:17;5.00;99.90
54461;DHT22;40371;49.414;11.010;2022-11-20T14:54:45;4.90;99.90
54461;DHT22;40371;49.414;11.010;2022-11-20T15:00:07;4.90;99.90
54461;DHT22;40371;49.414;11.010;2022-11-20T15:02:45;4.90;99.90
54461;DHT22;40371;49.414;11.010;2022-11-20T15:05:11;5.00;99.90
54461;DHT22;40371;49.414;11.010;2022-11-20T15:07:39;5.00;99.90
54461;DHT22;40371;49.414;11.010;2022-11-20T15:10:09;5.00;99.90
54461;DHT22;40371;49.414;11.010;2022-11-20T15:12:49;4.90;99.90
54461;DHT22;40371;49.414;11.010;2022-11-20T15:15:30;5.00;99.90
54461;DHT22;40371;49.414;11.010;2022-11-20T15:17:56;5.00;99.90
54461;DHT22;40371;49.414;11.010;2022-11-20T15:20:27;5.00;99.90
54461;DHT22;40371;49.414;11.010;2022-11-20T15:22:53;5.10;99.90
54461;DHT22;40371;49.414;11.010;2022-11-20T15:25:19;5.10;99.90
54461;DHT22;40371;49.414;11.010;2022-11-20T15:27:45;5.20;99.90
54461;DHT22;40371;49.414;11.010;2022-11-20T15:30:17;5.20;99.90
54461;DHT22;40371;49.414;11.010;2022-11-20T15:32:44;5.10;99.90
54461;DHT22;40371;49.414;11.010;2022-11-20T15:35:10;5.10;99.90
54461;DHT22;40371;49.414;11.010;2022-11-20T15:37:39;5.10;99.90
54461;DHT22;40371;49.414;11.010;2022-11-20T15:40:06;5.10;99.90
54461;DHT22;40371;49.414;11.010;2022-11-20T15:42:33;5.10;99.90
54461;DHT22;40371;49.414;11.010;2022-11-20T15:44:59;5.00;99.90
54461;DHT22;40371;49.414;11.010;2022-11-20T15:47:33;5.00;99.90
54461;DHT22;40371;49.414;11.010;2022-11-20T15:50:00;5.10;99.90
54461;DHT22;40371;49.414;11.010;2022-11-20T15:52:26;5.10;99.90
54461;DHT22;40371;49.414;11.010;2022-11-20T15:54:51;5.00;99.90
54461;DHT22;40371;49.414;11.010;2022-11-20T15:57:17;5.00;99.90
54461;DHT22;40371;49.414;11.010;2022-11-20T15:59:43;5.00;99.90
54461;DHT22;40371;49.414;11.010;2022-11-20T16:02:12;5.00;99.90
54461;DHT22;40371;49.414;11.010;2022-11-20T16:04:38;5.10;99.90
54461;DHT22;40371;49.414;11.010;2022-11-20T16:07:04;5.20;99.90
54461;DHT22;40371;49.414;11.010;2022-11-20T16:09:30;5.20;99.90
54461;DHT22;40371;49.414;11.010;2022-11-20T16:11:55;5.20;99.90
54461;DHT22;40371;49.414;11.010;2022-11-20T16:14:23;5.20;99.90
54461;DHT22;40371;49.414;11.010;2022-11-20T16:17:07;5.10;99.90
54461;DHT22;40371;49.414;11.010;2022-11-20T16:19:32;5.20;99.90
54461;DHT22;40371;49.414;11.010;2022-11-20T16:21:58;5.20;99.90
54461;DHT22;40371;49.414;11.010;2022-11-20T16:24:26;5.10;99.90
54461;DHT22;40371;49.414;11.010;2022-11-20T16:26:53;4.90;99.90
54461;DHT22;40371;49.414;11.010;2022-11-20T16:29:19;4.90;99.90
54461;DHT22;40371;49.414;11.010;2022-11-20T16:31:45;4.90;99.90
54461;DHT22;40371;49.414;11.010;2022-11-20T16:34:10;4.80;99.90
54461;DHT22;40371;49.414;11.010;2022-11-20T16:36:39;4.80;99.90
54461;DHT22;40371;49.414;11.010;2022-11-20T16:39:04;4.90;99.90
54461;DHT22;40371;49.414;11.010;2022-11-20T16:41:32;4.80;99.90
54461;DHT22;40371;49.414;11.010;2022-11-20T16:44:01;4.80;99.90
54461;DHT22;40371;49.414;11.010;2022-11-20T16:46:29;4.70;99.90
54461;DHT22;40371;49.414;11.010;2022-11-20T16:48:59;4.70;99.90
54461;DHT22;40371;49.414;11.010;2022-11-20T16:51:27;4.70;99.90
54461;DHT22;40371;49.414;11.010;2022-11-20T16:53:53;4.80;99.90
54461;DHT22;40371;49.414;11.010;2022-11-20T16:56:24;4.90;99.90
54461;DHT22;40371;49.414;11.010;2022-11-20T16:58:52;4.70;99.90
54461;DHT22;40371;49.414;11.010;2022-11-20T17:01:20;4.60;99.90
54461;DHT22;40371;49.414;11.010;2022-11-20T17:03:53;4.60;99.90
54461;DHT22;40371;49.414;11.010;2022-11-20T17:06:21;4.60;99.90
54461;DHT22;40371;49.414;11.010;2022-11-20T17:08:47;4.70;99.90
54461;DHT22;40371;49.414;11.010;2022-11-20T17:11:18;4.80;99.90
54461;DHT22;40371;49.414;11.010;2022-11-20T17:13:45;4.80;99.90
54461;DHT22;40371;49.414;11.010;2022-11-20T17:16:22;4.80;99.90
54461;DHT22;40371;49.414;11.010;2022-11-20T17:18:48;4.70;99.90